createdAt,value
2018-08-12T00:00:28.695Z,20.80
2018-08-12T00:01:32.088Z,20.80
2018-08-12T00:02:35.467Z,20.80
2018-08-12T00:03:38.867Z,20.70
2018-08-12T00:04:42.267Z,20.70
2018-08-12T00:05:46.669Z,20.70
2018-08-12T00:06:50.059Z,20.70
2018-08-12T00:07:53.502Z,20.70
2018-08-12T00:08:56.895Z,20.70
2018-08-12T00:10:00.276Z,20.70
2018-08-12T00:11:04.885Z,20.70
2018-08-12T00:12:08.295Z,20.70
2018-08-12T00:13:11.687Z,20.70
2018-08-12T00:14:15.097Z,20.70
2018-08-12T00:15:20.845Z,20.70
2018-08-12T00:16:24.911Z,20.70
2018-08-12T00:17:28.303Z,20.70
2018-08-12T00:18:31.683Z,20.70
2018-08-12T00:19:35.075Z,20.70
2018-08-12T00:20:39.335Z,20.70
2018-08-12T00:21:42.749Z,20.70
2018-08-12T00:22:46.711Z,20.70
2018-08-12T00:23:50.135Z,20.70
2018-08-12T00:24:53.547Z,20.70
2018-08-12T00:25:58.431Z,20.70
2018-08-12T00:27:01.851Z,20.70
2018-08-12T00:28:05.295Z,20.70
2018-08-12T00:29:08.705Z,20.70
2018-08-12T00:30:14.916Z,20.70
2018-08-12T00:31:19.342Z,20.70
2018-08-12T00:32:22.776Z,20.70
2018-08-12T00:33:26.155Z,20.70
2018-08-12T00:34:29.547Z,20.70
2018-08-12T00:35:34.023Z,20.70
2018-08-12T00:36:37.440Z,20.70
2018-08-12T00:37:41.497Z,20.70
2018-08-12T00:38:44.897Z,20.70
2018-08-12T00:39:48.297Z,20.70
2018-08-12T00:40:53.110Z,20.70
2018-08-12T00:41:56.525Z,20.70
2018-08-12T00:42:59.911Z,20.70
2018-08-12T00:44:03.301Z,20.70
2018-08-12T00:45:11.230Z,20.70
2018-08-12T00:46:15.678Z,20.70
2018-08-12T00:47:19.187Z,20.70
2018-08-12T00:48:22.563Z,20.70
2018-08-12T00:49:25.967Z,20.70
2018-08-12T00:50:30.438Z,20.70
2018-08-12T00:51:33.855Z,20.70
2018-08-12T00:52:37.264Z,20.60
2018-08-12T00:53:40.644Z,20.60
2018-08-12T00:54:44.047Z,20.60
2018-08-12T00:55:48.404Z,20.60
2018-08-12T00:56:51.818Z,20.60
2018-08-12T00:57:55.203Z,20.60
2018-08-12T00:58:58.728Z,20.60
2018-08-12T01:00:02.192Z,20.60
2018-08-12T01:01:06.687Z,20.60
2018-08-12T01:02:10.566Z,20.60
2018-08-12T01:03:13.999Z,20.60
2018-08-12T01:04:17.407Z,20.60
2018-08-12T01:05:21.707Z,20.60
2018-08-12T01:06:25.839Z,20.50
2018-08-12T01:07:29.747Z,20.50
2018-08-12T01:08:33.138Z,20.50
2018-08-12T01:09:36.591Z,20.50
2018-08-12T01:10:41.304Z,20.50
2018-08-12T01:11:44.703Z,20.50
2018-08-12T01:12:48.115Z,20.50
2018-08-12T01:13:51.492Z,20.50
2018-08-12T01:14:54.916Z,20.50
2018-08-12T01:15:59.307Z,20.50
2018-08-12T01:17:02.703Z,20.50
2018-08-12T01:18:06.803Z,20.50
2018-08-12T01:19:10.288Z,20.50
2018-08-12T01:20:23.871Z,20.50
2018-08-12T01:21:29.065Z,20.50
2018-08-12T01:22:32.491Z,20.50
2018-08-12T01:23:35.891Z,20.40
2018-08-12T01:24:39.287Z,20.40
2018-08-12T01:25:43.912Z,20.40
2018-08-12T01:26:47.339Z,20.40
2018-08-12T01:27:50.715Z,20.30
2018-08-12T01:28:54.097Z,20.30
2018-08-12T01:29:57.535Z,20.30
2018-08-12T01:31:02.000Z,20.30
2018-08-12T01:32:05.702Z,20.30
2018-08-12T01:33:09.088Z,20.30
2018-08-12T01:34:12.463Z,20.20
2018-08-12T01:35:17.216Z,20.20
2018-08-12T01:36:22.175Z,20.20
2018-08-12T01:37:25.583Z,20.20
2018-08-12T01:38:28.968Z,20.20
2018-08-12T01:39:32.344Z,20.20
2018-08-12T01:40:37.874Z,20.20
2018-08-12T01:41:41.270Z,20.20
2018-08-12T01:42:45.195Z,20.20
2018-08-12T01:43:48.574Z,20.20
2018-08-12T01:44:51.975Z,20.20
2018-08-12T01:45:56.395Z,20.20
2018-08-12T01:46:59.788Z,20.20
2018-08-12T01:48:03.171Z,20.10
2018-08-12T01:49:06.956Z,20.20
2018-08-12T01:50:12.956Z,20.10
2018-08-12T01:51:17.516Z,20.20
2018-08-12T01:52:20.931Z,20.10
2018-08-12T01:53:24.310Z,20.10
2018-08-12T01:54:27.698Z,20.10
2018-08-12T01:55:32.746Z,20.10
2018-08-12T01:56:36.163Z,20.10
2018-08-12T01:57:39.567Z,20.10
2018-08-12T01:58:42.947Z,20.10
2018-08-12T01:59:46.338Z,20.10
2018-08-12T02:00:50.781Z,20.10
2018-08-12T02:01:54.183Z,20.10
2018-08-12T02:02:57.560Z,20.10
2018-08-12T02:04:00.987Z,20.10
2018-08-12T02:05:05.837Z,20.00
2018-08-12T02:06:09.812Z,20.00
2018-08-12T02:07:13.191Z,20.00
2018-08-12T02:08:16.571Z,20.00
2018-08-12T02:09:19.967Z,20.00
2018-08-12T02:10:24.433Z,20.00
2018-08-12T02:11:28.894Z,20.00
2018-08-12T02:12:32.271Z,20.00
2018-08-12T02:13:35.661Z,20.00
2018-08-12T02:14:39.039Z,20.00
2018-08-12T02:15:44.186Z,20.00
2018-08-12T02:16:47.610Z,19.90
2018-08-12T02:17:51.003Z,19.90
2018-08-12T02:18:54.389Z,19.90
2018-08-12T02:19:57.763Z,19.90
2018-08-12T02:21:02.351Z,19.90
2018-08-12T02:22:06.052Z,19.90
2018-08-12T02:23:09.431Z,19.90
2018-08-12T02:24:12.844Z,19.90
2018-08-12T02:25:17.286Z,19.90
2018-08-12T02:26:22.796Z,19.90
2018-08-12T02:27:26.231Z,19.90
2018-08-12T02:28:29.703Z,19.90
2018-08-12T02:29:33.079Z,19.90
2018-08-12T02:30:37.890Z,19.90
2018-08-12T02:31:41.303Z,19.80
2018-08-12T02:32:44.720Z,19.80
2018-08-12T02:33:48.116Z,19.80
2018-08-12T02:34:51.501Z,19.80
2018-08-12T02:35:55.993Z,19.80
2018-08-12T02:36:59.412Z,19.80
2018-08-12T02:38:02.812Z,19.70
2018-08-12T02:39:08.611Z,19.70
2018-08-12T02:40:13.876Z,19.70
2018-08-12T02:41:18.618Z,19.70
2018-08-12T02:42:22.103Z,19.70
2018-08-12T02:43:25.539Z,19.70
2018-08-12T02:44:28.919Z,19.70
2018-08-12T02:45:33.331Z,19.70
2018-08-12T02:46:36.787Z,19.70
2018-08-12T02:47:40.187Z,19.70
2018-08-12T02:48:43.572Z,19.60
2018-08-12T02:49:46.952Z,19.60
2018-08-12T02:50:51.384Z,19.60
2018-08-12T02:51:54.795Z,19.60
2018-08-12T02:52:58.219Z,19.60
2018-08-12T02:54:01.595Z,19.60
2018-08-12T02:55:06.361Z,19.60
2018-08-12T02:56:10.801Z,19.60
2018-08-12T02:57:14.275Z,19.60
2018-08-12T02:58:17.651Z,19.60
2018-08-12T02:59:21.047Z,19.60
2018-08-12T03:00:25.644Z,19.60
2018-08-12T03:01:29.867Z,19.50
2018-08-12T03:02:33.271Z,19.50
2018-08-12T03:03:36.695Z,19.50
2018-08-12T03:04:40.076Z,19.50
2018-08-12T03:05:45.331Z,19.50
2018-08-12T03:06:48.747Z,19.50
2018-08-12T03:07:52.154Z,19.50
2018-08-12T03:08:55.531Z,19.50
2018-08-12T03:09:58.920Z,19.50
2018-08-12T03:11:04.795Z,19.40
2018-08-12T03:12:08.238Z,19.40
2018-08-12T03:13:11.640Z,19.40
2018-08-12T03:14:15.017Z,19.40
2018-08-12T03:15:19.438Z,19.40
2018-08-12T03:16:24.181Z,19.30
2018-08-12T03:17:27.591Z,19.30
2018-08-12T03:18:31.468Z,19.30
2018-08-12T03:19:34.858Z,19.30
2018-08-12T03:20:39.224Z,19.30
2018-08-12T03:21:42.663Z,19.30
2018-08-12T03:22:46.039Z,19.30
2018-08-12T03:23:49.447Z,19.30
2018-08-12T03:24:52.832Z,19.30
2018-08-12T03:25:57.561Z,19.30
2018-08-12T03:27:01.017Z,19.30
2018-08-12T03:28:04.479Z,19.30
2018-08-12T03:29:07.881Z,19.30
2018-08-12T03:30:12.488Z,19.30
2018-08-12T03:31:16.776Z,19.20
2018-08-12T03:32:20.203Z,19.20
2018-08-12T03:33:23.599Z,19.30
2018-08-12T03:34:26.996Z,19.20
2018-08-12T03:35:31.537Z,19.20
2018-08-12T03:36:34.931Z,19.20
2018-08-12T03:37:38.320Z,19.30
2018-08-12T03:38:41.695Z,19.20
2018-08-12T03:39:45.091Z,19.20
2018-08-12T03:40:49.459Z,19.20
2018-08-12T03:41:52.851Z,19.20
2018-08-12T03:42:56.233Z,19.20
2018-08-12T03:43:59.615Z,19.20
2018-08-12T03:45:03.380Z,19.20
2018-08-12T03:46:08.319Z,19.20
2018-08-12T03:47:11.723Z,19.10
2018-08-12T03:48:15.095Z,19.10
2018-08-12T03:49:18.475Z,19.10
2018-08-12T03:50:23.004Z,19.00
2018-08-12T03:51:27.633Z,19.10
2018-08-12T03:52:31.043Z,19.10
2018-08-12T03:53:34.587Z,19.10
2018-08-12T03:54:37.967Z,19.10
2018-08-12T03:55:42.409Z,19.00
2018-08-12T03:56:45.835Z,19.00
2018-08-12T03:57:49.296Z,19.00
2018-08-12T03:58:52.699Z,19.00
2018-08-12T03:59:56.091Z,19.10
2018-08-12T04:01:00.607Z,19.10
2018-08-12T04:02:04.024Z,19.00
2018-08-12T04:03:07.419Z,19.00
2018-08-12T04:04:10.811Z,19.00
2018-08-12T04:05:15.263Z,19.00
2018-08-12T04:06:20.635Z,19.00
2018-08-12T04:07:24.031Z,19.00
2018-08-12T04:08:27.410Z,19.00
2018-08-12T04:09:30.795Z,19.00
2018-08-12T04:10:36.066Z,18.90
2018-08-12T04:11:39.483Z,19.00
2018-08-12T04:12:42.866Z,18.90
2018-08-12T04:13:46.243Z,19.00
2018-08-12T04:14:49.615Z,18.90
2018-08-12T04:15:54.193Z,19.00
2018-08-12T04:16:59.236Z,19.00
2018-08-12T04:18:02.608Z,18.90
2018-08-12T04:19:06.379Z,19.00
2018-08-12T04:20:11.579Z,19.00
2018-08-12T04:21:16.436Z,18.90
2018-08-12T04:22:19.906Z,18.90
2018-08-12T04:23:23.286Z,18.90
2018-08-12T04:24:26.911Z,18.90
2018-08-12T04:25:31.806Z,18.90
2018-08-12T04:26:35.203Z,18.90
2018-08-12T04:27:38.611Z,18.90
2018-08-12T04:28:41.999Z,19.00
2018-08-12T04:29:45.387Z,19.00
2018-08-12T04:30:50.025Z,18.90
2018-08-12T04:31:53.414Z,18.90
2018-08-12T04:32:56.805Z,19.00
2018-08-12T04:34:00.200Z,18.90
2018-08-12T04:35:04.913Z,18.90
2018-08-12T04:36:09.348Z,18.90
2018-08-12T04:37:12.747Z,18.90
2018-08-12T04:38:16.263Z,19.00
2018-08-12T04:39:19.701Z,19.00
2018-08-12T04:40:24.033Z,19.00
2018-08-12T04:41:28.491Z,19.00
2018-08-12T04:42:31.895Z,19.00
2018-08-12T04:43:35.281Z,19.00
2018-08-12T04:44:38.659Z,19.00
2018-08-12T04:45:43.655Z,19.00
2018-08-12T04:46:47.067Z,19.00
2018-08-12T04:47:50.491Z,19.00
2018-08-12T04:48:53.931Z,19.00
2018-08-12T04:49:57.307Z,19.00
2018-08-12T04:51:01.717Z,19.00
2018-08-12T04:52:05.143Z,19.00
2018-08-12T04:53:08.552Z,19.00
2018-08-12T04:54:11.939Z,19.00
2018-08-12T04:55:17.312Z,19.00
2018-08-12T04:56:21.848Z,19.00
2018-08-12T04:57:25.259Z,19.00
2018-08-12T04:58:28.667Z,19.10
2018-08-12T04:59:32.075Z,19.10
2018-08-12T05:00:36.555Z,19.10
2018-08-12T05:01:39.961Z,19.10
2018-08-12T05:02:43.343Z,19.10
2018-08-12T05:03:46.943Z,19.10
2018-08-12T05:04:50.326Z,19.10
2018-08-12T05:05:59.250Z,19.10
2018-08-12T05:07:02.667Z,19.10
2018-08-12T05:08:06.055Z,19.10
2018-08-12T05:09:10.731Z,19.10
2018-08-12T05:10:15.716Z,19.10
2018-08-12T05:11:20.092Z,19.10
2018-08-12T05:12:23.483Z,19.10
2018-08-12T05:13:26.867Z,19.10
2018-08-12T05:14:30.269Z,19.10
2018-08-12T05:15:34.676Z,19.10
2018-08-12T05:16:38.083Z,19.10
2018-08-12T05:17:41.463Z,19.10
2018-08-12T05:18:44.837Z,19.10
2018-08-12T05:19:48.267Z,19.10
2018-08-12T05:20:52.796Z,19.10
2018-08-12T05:21:56.199Z,19.10
2018-08-12T05:22:59.575Z,19.10
2018-08-12T05:24:02.979Z,19.10
2018-08-12T05:25:07.927Z,19.00
2018-08-12T05:26:12.340Z,19.10
2018-08-12T05:27:15.739Z,19.10
2018-08-12T05:28:19.130Z,19.10
2018-08-12T05:29:22.511Z,19.10
2018-08-12T05:30:27.081Z,19.10
2018-08-12T05:31:30.943Z,19.10
2018-08-12T05:32:34.336Z,19.10
2018-08-12T05:33:37.739Z,19.10
2018-08-12T05:34:41.116Z,19.10
2018-08-12T05:35:45.640Z,19.10
2018-08-12T05:36:49.048Z,19.10
2018-08-12T05:37:52.427Z,19.10
2018-08-12T05:38:55.815Z,19.10
2018-08-12T05:39:59.207Z,19.00
2018-08-12T05:41:03.482Z,19.10
2018-08-12T05:42:06.899Z,19.00
2018-08-12T05:43:10.278Z,19.10
2018-08-12T05:44:13.655Z,19.10
2018-08-12T05:45:18.148Z,19.10
2018-08-12T05:46:23.413Z,19.10
2018-08-12T05:47:26.944Z,19.10
2018-08-12T05:48:30.671Z,19.10
2018-08-12T05:49:34.063Z,19.10
2018-08-12T05:50:38.584Z,19.20
2018-08-12T05:51:41.980Z,19.20
2018-08-12T05:52:45.355Z,19.20
2018-08-12T05:53:48.739Z,19.20
2018-08-12T05:54:52.119Z,19.20
2018-08-12T05:55:56.786Z,19.20
2018-08-12T05:57:00.175Z,19.20
2018-08-12T05:58:03.615Z,19.20
2018-08-12T05:59:06.995Z,19.20
2018-08-12T06:00:13.380Z,19.20
2018-08-12T06:01:18.366Z,19.20
2018-08-12T06:02:21.777Z,19.20
2018-08-12T06:03:25.156Z,19.20
2018-08-12T06:04:28.535Z,19.20
2018-08-12T06:05:33.285Z,19.20
2018-08-12T06:06:36.699Z,19.20
2018-08-12T06:07:40.112Z,19.20
2018-08-12T06:08:43.496Z,19.20
2018-08-12T06:09:46.888Z,19.20
2018-08-12T06:10:52.497Z,19.30
2018-08-12T06:11:55.911Z,19.30
2018-08-12T06:12:59.295Z,19.30
2018-08-12T06:14:02.967Z,19.30
2018-08-12T06:15:09.631Z,19.30
2018-08-12T06:16:15.005Z,19.30
2018-08-12T06:17:18.513Z,19.30
2018-08-12T06:18:21.905Z,19.30
2018-08-12T06:19:25.310Z,19.40
2018-08-12T06:20:29.832Z,19.40
2018-08-12T06:21:33.251Z,19.40
2018-08-12T06:22:36.711Z,19.40
2018-08-12T06:23:40.087Z,19.40
2018-08-12T06:24:43.496Z,19.50
2018-08-12T06:25:48.820Z,19.50
2018-08-12T06:26:52.207Z,19.50
2018-08-12T06:27:55.615Z,19.50
2018-08-12T06:28:59.011Z,19.50
2018-08-12T06:30:02.449Z,19.50
2018-08-12T06:31:06.851Z,19.50
2018-08-12T06:32:10.272Z,19.50
2018-08-12T06:33:13.667Z,19.50
2018-08-12T06:34:17.083Z,19.50
2018-08-12T06:35:21.544Z,19.50
2018-08-12T06:36:25.386Z,19.50
2018-08-12T06:37:28.767Z,19.50
2018-08-12T06:38:32.161Z,19.50
2018-08-12T06:39:35.535Z,19.50
2018-08-12T06:40:40.577Z,19.50
2018-08-12T06:41:43.987Z,19.50
2018-08-12T06:42:47.365Z,19.50
2018-08-12T06:43:50.759Z,19.50
2018-08-12T06:44:54.143Z,19.50
2018-08-12T06:45:58.566Z,19.50
2018-08-12T06:47:01.977Z,19.50
2018-08-12T06:48:05.747Z,19.50
2018-08-12T06:49:09.159Z,19.60
2018-08-12T06:50:13.575Z,19.60
2018-08-12T06:51:17.957Z,19.60
2018-08-12T06:52:21.359Z,19.60
2018-08-12T06:53:24.727Z,19.60
2018-08-12T06:54:28.164Z,19.60
2018-08-12T06:55:33.611Z,19.60
2018-08-12T06:56:37.012Z,19.60
2018-08-12T06:57:41.332Z,19.60
2018-08-12T06:58:44.747Z,19.70
2018-08-12T06:59:48.167Z,19.70
2018-08-12T07:00:53.427Z,19.70
2018-08-12T07:01:56.987Z,19.80
2018-08-12T07:03:00.378Z,19.70
2018-08-12T07:04:03.763Z,19.80
2018-08-12T07:05:09.313Z,19.80
2018-08-12T07:06:13.616Z,19.80
2018-08-12T07:07:17.019Z,19.80
2018-08-12T07:08:20.395Z,19.80
2018-08-12T07:09:23.780Z,19.80
2018-08-12T07:10:28.946Z,19.90
2018-08-12T07:11:32.363Z,19.90
2018-08-12T07:12:35.748Z,19.90
2018-08-12T07:13:39.163Z,19.90
2018-08-12T07:14:42.579Z,19.90
2018-08-12T07:15:46.988Z,19.90
2018-08-12T07:16:50.419Z,19.90
2018-08-12T07:17:53.803Z,19.90
2018-08-12T07:18:57.195Z,19.90
2018-08-12T07:20:00.580Z,19.90
2018-08-12T07:21:05.517Z,20.00
2018-08-12T07:22:08.939Z,20.00
2018-08-12T07:23:12.332Z,20.00
2018-08-12T07:24:15.736Z,20.00
2018-08-12T07:25:20.317Z,20.00
2018-08-12T07:26:24.388Z,20.00
2018-08-12T07:27:27.791Z,20.00
2018-08-12T07:28:31.175Z,20.10
2018-08-12T07:29:34.629Z,20.10
2018-08-12T07:30:38.811Z,20.10
2018-08-12T07:31:42.241Z,20.10
2018-08-12T07:32:45.694Z,20.10
2018-08-12T07:33:49.055Z,20.10
2018-08-12T07:34:52.447Z,20.20
2018-08-12T07:35:56.894Z,20.20
2018-08-12T07:37:00.329Z,20.20
2018-08-12T07:38:03.711Z,20.20
2018-08-12T07:39:08.319Z,20.30
2018-08-12T07:40:17.729Z,20.30
2018-08-12T07:41:22.112Z,20.30
2018-08-12T07:42:25.531Z,20.30
2018-08-12T07:43:28.923Z,20.30
2018-08-12T07:44:32.299Z,20.30
2018-08-12T07:45:36.844Z,20.40
2018-08-12T07:46:40.258Z,20.40
2018-08-12T07:47:44.131Z,20.40
2018-08-12T07:48:48.123Z,20.50
2018-08-12T07:49:51.423Z,20.50
2018-08-12T07:50:57.432Z,20.50
2018-08-12T07:52:00.848Z,20.50
2018-08-12T07:53:04.247Z,20.60
2018-08-12T07:54:07.628Z,20.60
2018-08-12T07:55:13.035Z,20.60
2018-08-12T07:56:17.506Z,20.60
2018-08-12T07:57:20.915Z,20.60
2018-08-12T07:58:24.307Z,20.70
2018-08-12T07:59:27.687Z,20.70
2018-08-12T08:00:32.251Z,20.70
2018-08-12T08:01:35.671Z,20.70
2018-08-12T08:02:39.049Z,20.70
2018-08-12T08:03:42.476Z,20.80
2018-08-12T08:04:45.851Z,20.80
2018-08-12T08:05:51.172Z,20.80
2018-08-12T08:06:54.571Z,20.80
2018-08-12T08:07:58.034Z,20.80
2018-08-12T08:09:01.463Z,20.80
2018-08-12T08:10:07.638Z,20.80
2018-08-12T08:11:12.133Z,20.90
2018-08-12T08:12:15.543Z,20.90
2018-08-12T08:13:18.923Z,20.90
2018-08-12T08:14:22.323Z,20.90
2018-08-12T08:15:27.798Z,20.90
2018-08-12T08:16:31.239Z,21.00
2018-08-12T08:17:34.651Z,21.00
2018-08-12T08:18:38.064Z,21.00
2018-08-12T08:19:41.507Z,21.00
2018-08-12T08:20:45.782Z,21.00
2018-08-12T08:21:49.175Z,21.00
2018-08-12T08:22:52.575Z,21.00
2018-08-12T08:23:55.955Z,21.00
2018-08-12T08:24:59.356Z,21.00
2018-08-12T08:26:03.874Z,21.00
2018-08-12T08:27:07.303Z,21.00
2018-08-12T08:28:10.687Z,21.00
2018-08-12T08:29:14.075Z,21.00
2018-08-12T08:30:18.583Z,21.10
2018-08-12T08:31:22.918Z,21.10
2018-08-12T08:32:26.361Z,21.10
2018-08-12T08:33:29.744Z,21.10
2018-08-12T08:34:33.133Z,21.10
2018-08-12T08:35:37.724Z,21.10
2018-08-12T08:36:41.151Z,21.20
2018-08-12T08:37:44.607Z,21.20
2018-08-12T08:38:47.997Z,21.20
2018-08-12T08:39:51.383Z,21.20
2018-08-12T08:40:56.294Z,21.20
2018-08-12T08:41:59.697Z,21.20
2018-08-12T08:43:03.079Z,21.30
2018-08-12T08:44:06.703Z,21.30
2018-08-12T08:45:18.740Z,21.30
2018-08-12T08:46:23.035Z,21.30
2018-08-12T08:47:26.448Z,21.30
2018-08-12T08:48:29.823Z,21.30
2018-08-12T08:49:33.203Z,21.30
2018-08-12T08:50:37.626Z,21.30
2018-08-12T08:51:41.049Z,21.40
2018-08-12T08:52:44.609Z,21.40
2018-08-12T08:53:47.983Z,21.40
2018-08-12T08:54:51.368Z,21.40
2018-08-12T08:55:56.053Z,21.40
2018-08-12T08:56:59.423Z,21.40
2018-08-12T08:58:02.851Z,21.50
2018-08-12T08:59:06.247Z,21.50
2018-08-12T09:00:15.442Z,21.50
2018-08-12T09:01:20.189Z,21.50
2018-08-12T09:02:23.648Z,21.50
2018-08-12T09:03:27.023Z,21.60
2018-08-12T09:04:30.426Z,21.60
2018-08-12T09:05:35.051Z,21.60
2018-08-12T09:06:38.468Z,21.60
2018-08-12T09:07:42.079Z,21.60
2018-08-12T09:08:45.816Z,21.60
2018-08-12T09:09:48.979Z,21.70
2018-08-12T09:10:54.466Z,21.70
2018-08-12T09:11:57.892Z,21.70
2018-08-12T09:13:01.320Z,21.70
2018-08-12T09:14:04.743Z,21.70
2018-08-12T09:15:11.377Z,21.70
2018-08-12T09:16:16.718Z,21.80
2018-08-12T09:17:20.143Z,21.80
2018-08-12T09:18:23.535Z,21.80
2018-08-12T09:19:26.943Z,21.90
2018-08-12T09:20:31.635Z,21.90
2018-08-12T09:21:35.126Z,21.90
2018-08-12T09:22:38.536Z,21.90
2018-08-12T09:23:41.943Z,21.90
2018-08-12T09:24:45.327Z,21.90
2018-08-12T09:25:49.914Z,22.00
2018-08-12T09:26:53.399Z,22.00
2018-08-12T09:27:56.779Z,22.00
2018-08-12T09:29:00.239Z,22.00
2018-08-12T09:30:05.635Z,22.00
2018-08-12T09:31:10.682Z,22.00
2018-08-12T09:32:14.227Z,22.00
2018-08-12T09:33:17.603Z,22.10
2018-08-12T09:34:21.004Z,22.10
2018-08-12T09:35:25.409Z,22.10
2018-08-12T09:36:29.707Z,22.10
2018-08-12T09:37:33.351Z,22.10
2018-08-12T09:38:36.739Z,22.10
2018-08-12T09:39:40.119Z,22.20
2018-08-12T09:40:44.431Z,22.20
2018-08-12T09:41:47.888Z,22.20
2018-08-12T09:42:51.288Z,22.20
2018-08-12T09:43:54.727Z,22.30
2018-08-12T09:44:58.126Z,22.30
2018-08-12T09:46:02.509Z,22.30
2018-08-12T09:47:05.922Z,22.30
2018-08-12T09:48:09.312Z,22.40
2018-08-12T09:49:12.791Z,22.40
2018-08-12T09:50:20.514Z,22.40
2018-08-12T09:51:25.197Z,22.40
2018-08-12T09:52:28.667Z,22.40
2018-08-12T09:53:32.098Z,22.50
2018-08-12T09:54:35.482Z,22.50
2018-08-12T09:55:40.940Z,22.50
2018-08-12T09:56:44.351Z,22.50
2018-08-12T09:57:47.732Z,22.50
2018-08-12T09:58:51.134Z,22.60
2018-08-12T09:59:54.625Z,22.60
2018-08-12T10:00:59.217Z,22.60
2018-08-12T10:02:02.627Z,22.60
2018-08-12T10:03:06.332Z,22.70
2018-08-12T10:04:09.727Z,22.70
2018-08-12T10:05:14.324Z,22.70
2018-08-12T10:06:19.226Z,22.70
2018-08-12T10:07:22.717Z,22.70
2018-08-12T10:08:26.095Z,22.70
2018-08-12T10:09:29.471Z,22.70
2018-08-12T10:10:33.820Z,22.70
2018-08-12T10:11:37.211Z,22.80
2018-08-12T10:12:40.973Z,22.80
2018-08-12T10:13:44.410Z,22.80
2018-08-12T10:14:47.790Z,22.80
2018-08-12T10:15:53.356Z,22.80
2018-08-12T10:16:56.885Z,22.90
2018-08-12T10:18:06.740Z,22.90
2018-08-12T10:19:10.191Z,22.90
2018-08-12T10:20:14.742Z,22.90
2018-08-12T10:21:19.680Z,22.90
2018-08-12T10:22:23.123Z,22.90
2018-08-12T10:23:26.535Z,23.00
2018-08-12T10:24:29.927Z,23.00
2018-08-12T10:25:34.802Z,23.00
2018-08-12T10:26:38.207Z,23.10
2018-08-12T10:27:41.587Z,23.10
2018-08-12T10:28:45.011Z,23.10
2018-08-12T10:29:48.407Z,23.10
2018-08-12T10:30:53.697Z,23.20
2018-08-12T10:31:57.144Z,23.20
2018-08-12T10:33:00.567Z,23.30
2018-08-12T10:34:03.991Z,23.30
2018-08-12T10:35:09.770Z,23.30
2018-08-12T10:36:14.202Z,23.30
2018-08-12T10:37:17.643Z,23.30
2018-08-12T10:38:21.019Z,23.30
2018-08-12T10:39:24.426Z,23.30
2018-08-12T10:40:29.179Z,23.30
2018-08-12T10:41:32.603Z,23.30
2018-08-12T10:42:35.991Z,23.30
2018-08-12T10:43:39.383Z,23.30
2018-08-12T10:44:42.782Z,23.30
2018-08-12T10:45:47.222Z,23.30
2018-08-12T10:46:50.646Z,23.30
2018-08-12T10:47:54.043Z,23.30
2018-08-12T10:48:57.451Z,23.30
2018-08-12T10:50:00.855Z,23.30
2018-08-12T10:51:05.286Z,23.30
2018-08-12T10:52:08.767Z,23.30
2018-08-12T10:53:12.168Z,23.30
2018-08-12T10:54:15.623Z,23.30
2018-08-12T10:55:23.576Z,23.30
2018-08-12T10:56:28.057Z,23.30
2018-08-12T10:57:31.531Z,23.40
2018-08-12T10:58:34.979Z,23.40
2018-08-12T10:59:38.475Z,23.40
2018-08-12T11:00:43.129Z,23.40
2018-08-12T11:01:46.571Z,23.50
2018-08-12T11:02:50.078Z,23.50
2018-08-12T11:03:53.503Z,23.60
2018-08-12T11:04:56.946Z,23.60
2018-08-12T11:06:01.965Z,23.60
2018-08-12T11:07:05.396Z,23.60
2018-08-12T11:08:08.830Z,23.60
2018-08-12T11:09:12.271Z,23.60
2018-08-12T11:10:16.994Z,23.60
2018-08-12T11:11:22.047Z,23.70
2018-08-12T11:12:25.570Z,23.70
2018-08-12T11:13:28.935Z,23.70
2018-08-12T11:14:32.335Z,23.70
2018-08-12T11:15:36.903Z,23.70
2018-08-12T11:16:40.329Z,23.70
2018-08-12T11:17:43.703Z,23.70
2018-08-12T11:18:47.084Z,23.80
2018-08-12T11:19:50.475Z,23.80
2018-08-12T11:20:54.820Z,23.70
2018-08-12T11:21:58.219Z,23.70
2018-08-12T11:23:01.603Z,23.70
2018-08-12T11:24:05.003Z,23.70
2018-08-12T11:25:11.013Z,23.80
2018-08-12T11:26:15.436Z,23.80
2018-08-12T11:27:18.847Z,23.80
2018-08-12T11:28:22.259Z,23.80
2018-08-12T11:29:25.671Z,23.80
2018-08-12T11:30:30.923Z,23.90
2018-08-12T11:31:34.351Z,23.90
2018-08-12T11:32:37.816Z,23.90
2018-08-12T11:33:41.199Z,24.00
2018-08-12T11:34:51.404Z,24.00
2018-08-12T11:35:56.404Z,24.00
2018-08-12T11:36:59.824Z,24.00
2018-08-12T11:38:03.598Z,24.10
2018-08-12T11:39:09.905Z,24.10
2018-08-12T11:40:14.917Z,24.20
2018-08-12T11:41:19.762Z,24.20
2018-08-12T11:42:23.119Z,24.20
2018-08-12T11:43:26.527Z,24.20
2018-08-12T11:44:29.912Z,24.20
2018-08-12T11:45:34.488Z,24.20
2018-08-12T11:46:37.891Z,24.20
2018-08-12T11:47:42.227Z,24.20
2018-08-12T11:48:45.599Z,24.30
2018-08-12T11:49:48.995Z,24.30
2018-08-12T11:50:53.596Z,24.30
2018-08-12T11:51:57.028Z,24.30
2018-08-12T11:53:00.441Z,24.30
2018-08-12T11:54:03.832Z,24.30
2018-08-12T11:55:10.401Z,24.40
2018-08-12T11:56:14.955Z,24.40
2018-08-12T11:57:18.355Z,24.40
2018-08-12T11:58:21.751Z,24.40
2018-08-12T11:59:25.152Z,24.50
2018-08-12T12:00:29.611Z,24.50
2018-08-12T12:01:33.019Z,24.50
2018-08-12T12:02:36.403Z,24.50
2018-08-12T12:03:39.807Z,24.50
2018-08-12T12:04:43.202Z,24.50
2018-08-12T12:05:47.673Z,24.50
2018-08-12T12:06:51.075Z,24.60
2018-08-12T12:07:54.467Z,24.60
2018-08-12T12:08:57.867Z,24.60
2018-08-12T12:10:01.255Z,24.60
2018-08-12T12:11:05.702Z,24.70
2018-08-12T12:12:09.111Z,24.70
2018-08-12T12:13:12.494Z,24.70
2018-08-12T12:14:15.903Z,24.80
2018-08-12T12:15:20.428Z,24.80
2018-08-12T12:16:24.970Z,24.80
2018-08-12T12:17:28.519Z,24.80
2018-08-12T12:18:31.899Z,24.80
2018-08-12T12:19:35.303Z,24.90
2018-08-12T12:20:39.489Z,24.90
2018-08-12T12:21:42.928Z,24.90
2018-08-12T12:22:46.843Z,24.90
2018-08-12T12:23:50.225Z,24.90
2018-08-12T12:24:53.627Z,24.90
2018-08-12T12:25:58.133Z,24.90
2018-08-12T12:27:01.588Z,24.90
2018-08-12T12:28:05.049Z,24.90
2018-08-12T12:29:08.453Z,25.00
2018-08-12T12:30:15.437Z,25.00
2018-08-12T12:31:19.947Z,25.10
2018-08-12T12:32:23.363Z,25.10
2018-08-12T12:33:26.755Z,25.00
2018-08-12T12:34:30.143Z,25.10
2018-08-12T12:35:34.622Z,25.10
2018-08-12T12:36:38.015Z,25.10
2018-08-12T12:37:41.721Z,25.10
2018-08-12T12:38:45.105Z,25.10
2018-08-12T12:39:48.539Z,25.20
2018-08-12T12:40:54.089Z,25.20
2018-08-12T12:41:57.509Z,25.30
2018-08-12T12:43:00.925Z,25.40
2018-08-12T12:44:04.867Z,25.40
2018-08-12T12:45:11.136Z,25.50
2018-08-12T12:46:15.618Z,25.50
2018-08-12T12:47:19.028Z,25.50
2018-08-12T12:48:22.403Z,25.50
2018-08-12T12:49:25.814Z,25.60
2018-08-12T12:50:31.072Z,25.60
2018-08-12T12:51:34.517Z,25.60
2018-08-12T12:52:38.447Z,25.60
2018-08-12T12:53:41.850Z,25.60
2018-08-12T12:54:45.239Z,25.60
2018-08-12T12:55:49.639Z,25.70
2018-08-12T12:56:53.114Z,25.70
2018-08-12T12:57:56.535Z,25.70
2018-08-12T12:58:59.915Z,25.70
2018-08-12T13:00:04.268Z,25.70
2018-08-12T13:01:08.782Z,25.70
2018-08-12T13:02:12.206Z,25.80
2018-08-12T13:03:15.587Z,25.80
2018-08-12T13:04:18.975Z,25.80
2018-08-12T13:05:24.315Z,25.80
2018-08-12T13:06:28.791Z,25.90
2018-08-12T13:07:32.207Z,25.90
2018-08-12T13:08:35.595Z,25.90
2018-08-12T13:09:38.987Z,25.90
2018-08-12T13:10:43.588Z,25.90
2018-08-12T13:11:46.999Z,25.90
2018-08-12T13:12:50.433Z,25.90
2018-08-12T13:13:53.827Z,26.00
2018-08-12T13:14:57.223Z,26.00
2018-08-12T13:16:01.609Z,26.00
2018-08-12T13:17:05.027Z,26.10
2018-08-12T13:18:08.436Z,26.10
2018-08-12T13:19:11.831Z,26.10
2018-08-12T13:20:18.768Z,26.20
2018-08-12T13:21:24.151Z,26.30
2018-08-12T13:22:27.543Z,26.30
2018-08-12T13:23:30.962Z,26.40
2018-08-12T13:24:34.363Z,26.40
2018-08-12T13:25:39.560Z,26.40
2018-08-12T13:26:42.992Z,26.50
2018-08-12T13:27:46.452Z,26.50
2018-08-12T13:28:49.851Z,26.50
2018-08-12T13:29:53.227Z,26.50
2018-08-12T13:30:57.687Z,26.60
2018-08-12T13:32:01.079Z,26.60
2018-08-12T13:33:04.495Z,26.60
2018-08-12T13:34:07.884Z,26.60
2018-08-12T13:35:12.323Z,26.60
2018-08-12T13:36:16.949Z,26.60
2018-08-12T13:37:20.364Z,26.70
2018-08-12T13:38:23.758Z,26.70
2018-08-12T13:39:27.193Z,26.70
2018-08-12T13:40:31.636Z,26.70
2018-08-12T13:41:35.020Z,26.70
2018-08-12T13:42:39.279Z,26.70